createdAt,value
2018-01-16T00:00:46.564Z,985.24
2018-01-16T00:01:46.549Z,985.21
2018-01-16T00:02:46.546Z,985.13
2018-01-16T00:03:46.567Z,985.10
2018-01-16T00:04:46.554Z,985.13
2018-01-16T00:05:46.559Z,985.17
2018-01-16T00:06:46.560Z,985.14
2018-01-16T00:07:46.567Z,985.13
2018-01-16T00:08:46.567Z,985.23
2018-01-16T00:09:46.573Z,985.21
2018-01-16T00:10:46.582Z,985.21
2018-01-16T00:11:46.580Z,985.23
2018-01-16T00:12:46.583Z,985.10
2018-01-16T00:13:46.579Z,985.17
2018-01-16T00:14:46.584Z,985.09
2018-01-16T00:15:46.586Z,985.11
2018-01-16T00:16:46.588Z,985.13
2018-01-16T00:17:46.589Z,985.16
2018-01-16T00:18:46.592Z,985.12
2018-01-16T00:19:46.599Z,985.21
2018-01-16T00:20:46.604Z,985.17
2018-01-16T00:21:46.600Z,985.22
2018-01-16T00:22:46.603Z,985.25
2018-01-16T00:23:46.606Z,985.28
2018-01-16T00:24:46.613Z,985.34
2018-01-16T00:25:46.613Z,985.32
2018-01-16T00:26:46.644Z,985.31
2018-01-16T00:27:46.616Z,985.31
2018-01-16T00:28:46.615Z,985.32
2018-01-16T00:29:46.622Z,985.32
2018-01-16T00:30:46.618Z,985.29
2018-01-16T00:31:46.639Z,985.33
2018-01-16T00:32:46.627Z,985.35
2018-01-16T00:33:46.623Z,985.35
2018-01-16T00:34:46.633Z,985.38
2018-01-16T00:35:46.636Z,985.32
2018-01-16T00:36:46.639Z,985.35
2018-01-16T00:37:46.651Z,985.36
2018-01-16T00:38:46.643Z,985.42
2018-01-16T00:39:46.641Z,985.38
2018-01-16T00:40:46.643Z,985.40
2018-01-16T00:41:46.646Z,985.42
2018-01-16T00:42:46.650Z,985.41
2018-01-16T00:43:46.651Z,985.33
2018-01-16T00:44:47.440Z,985.41
2018-01-16T00:45:46.652Z,985.37
2018-01-16T00:46:46.660Z,985.43
2018-01-16T00:47:46.663Z,985.41
2018-01-16T00:48:46.680Z,985.48
2018-01-16T00:49:46.673Z,985.49
2018-01-16T00:50:46.667Z,985.53
2018-01-16T00:51:46.672Z,985.55
2018-01-16T00:52:46.670Z,985.58
2018-01-16T00:53:46.677Z,985.56
2018-01-16T00:54:46.677Z,985.60
2018-01-16T00:55:46.682Z,985.56
2018-01-16T00:56:46.679Z,985.55
2018-01-16T00:57:46.683Z,985.62
2018-01-16T00:58:46.689Z,985.56
2018-01-16T00:59:47.436Z,985.63
2018-01-16T01:00:46.697Z,985.55
2018-01-16T01:01:46.696Z,985.62
2018-01-16T01:02:46.700Z,985.50
2018-01-16T01:03:46.695Z,985.58
2018-01-16T01:04:46.708Z,985.56
2018-01-16T01:05:46.704Z,985.56
2018-01-16T01:06:46.705Z,985.56
2018-01-16T01:07:46.711Z,985.51
2018-01-16T01:08:46.713Z,985.63
2018-01-16T01:09:46.721Z,985.72
2018-01-16T01:10:46.730Z,985.75
2018-01-16T01:11:46.718Z,985.82
2018-01-16T01:12:46.727Z,985.77
2018-01-16T01:13:46.728Z,985.83
2018-01-16T01:14:46.732Z,985.82
2018-01-16T01:15:46.725Z,985.91
2018-01-16T01:16:46.735Z,985.93
2018-01-16T01:17:46.733Z,985.86
2018-01-16T01:18:46.739Z,985.88
2018-01-16T01:19:46.743Z,985.89
2018-01-16T01:20:46.741Z,985.78
2018-01-16T01:21:46.744Z,985.71
2018-01-16T01:22:46.751Z,985.82
2018-01-16T01:23:46.753Z,985.77
2018-01-16T01:24:46.751Z,985.79
2018-01-16T01:25:46.752Z,985.89
2018-01-16T01:26:46.765Z,985.93
2018-01-16T01:27:46.757Z,985.89
2018-01-16T01:28:46.762Z,985.95
2018-01-16T01:29:46.767Z,985.94
2018-01-16T01:30:46.770Z,985.88
2018-01-16T01:31:46.769Z,986.03
2018-01-16T01:32:46.774Z,985.91
2018-01-16T01:33:46.776Z,985.89
2018-01-16T01:34:46.778Z,985.91
2018-01-16T01:35:46.780Z,985.84
2018-01-16T01:36:46.784Z,985.85
2018-01-16T01:37:46.783Z,985.88
2018-01-16T01:38:46.792Z,985.85
2018-01-16T01:39:46.800Z,985.89
2018-01-16T01:40:46.797Z,985.92
2018-01-16T01:41:46.793Z,985.90
2018-01-16T01:42:46.799Z,985.89
2018-01-16T01:43:46.811Z,985.92
2018-01-16T01:44:46.803Z,985.98
2018-01-16T01:45:46.808Z,985.93
2018-01-16T01:46:46.803Z,985.89
2018-01-16T01:47:46.808Z,985.94
2018-01-16T01:48:46.815Z,985.95
2018-01-16T01:49:46.815Z,985.86
2018-01-16T01:50:46.815Z,985.91
2018-01-16T01:51:46.819Z,985.85
2018-01-16T01:52:46.835Z,985.87
2018-01-16T01:53:46.830Z,985.81
2018-01-16T01:54:46.849Z,985.80
2018-01-16T01:55:46.826Z,985.74
2018-01-16T01:56:46.834Z,985.70
2018-01-16T01:57:46.834Z,985.67
2018-01-16T01:58:46.836Z,985.73
2018-01-16T01:59:46.836Z,985.71
2018-01-16T02:00:46.841Z,985.80
2018-01-16T02:01:46.846Z,985.84
2018-01-16T02:02:46.863Z,985.82
2018-01-16T02:03:46.849Z,985.83
2018-01-16T02:04:46.865Z,985.86
2018-01-16T02:05:46.859Z,985.87
2018-01-16T02:06:46.853Z,985.85
2018-01-16T02:07:46.857Z,985.84
2018-01-16T02:08:46.864Z,985.84
2018-01-16T02:09:46.864Z,985.83
2018-01-16T02:10:46.864Z,985.79
2018-01-16T02:11:46.866Z,985.73
2018-01-16T02:12:46.874Z,985.73
2018-01-16T02:13:46.874Z,985.76
2018-01-16T02:14:46.872Z,985.76
2018-01-16T02:15:46.879Z,985.76
2018-01-16T02:16:46.879Z,985.71
2018-01-16T02:17:46.890Z,985.75
2018-01-16T02:18:46.880Z,985.74
2018-01-16T02:19:46.890Z,985.73
2018-01-16T02:20:46.889Z,985.69
2018-01-16T02:21:46.895Z,985.72
2018-01-16T02:22:46.893Z,985.62
2018-01-16T02:23:46.899Z,985.69
2018-01-16T02:24:46.899Z,985.61
2018-01-16T02:25:46.904Z,985.56
2018-01-16T02:26:46.900Z,985.56
2018-01-16T02:27:47.573Z,985.64
2018-01-16T02:28:46.911Z,985.60
2018-01-16T02:29:46.916Z,985.60
2018-01-16T02:30:46.915Z,985.53
2018-01-16T02:31:46.916Z,985.56
2018-01-16T02:32:46.925Z,985.56
2018-01-16T02:33:46.922Z,985.49
2018-01-16T02:34:46.925Z,985.47
2018-01-16T02:35:46.925Z,985.40
2018-01-16T02:36:46.933Z,985.40
2018-01-16T02:37:46.934Z,985.46
2018-01-16T02:38:46.932Z,985.46
2018-01-16T02:39:46.940Z,985.42
2018-01-16T02:40:46.940Z,985.38
2018-01-16T02:41:46.947Z,985.37
2018-01-16T02:42:46.960Z,985.37
2018-01-16T02:43:46.947Z,985.40
2018-01-16T02:44:46.949Z,985.38
2018-01-16T02:45:46.955Z,985.41
2018-01-16T02:46:46.954Z,985.36
2018-01-16T02:47:46.957Z,985.40
2018-01-16T02:48:46.970Z,985.32
2018-01-16T02:49:46.969Z,985.34
2018-01-16T02:50:46.973Z,985.26
2018-01-16T02:51:46.967Z,985.29
2018-01-16T02:52:46.980Z,985.23
2018-01-16T02:53:46.973Z,985.14
2018-01-16T02:54:46.983Z,985.13
2018-01-16T02:55:46.977Z,985.14
2018-01-16T02:56:46.985Z,985.16
2018-01-16T02:57:46.981Z,985.13
2018-01-16T02:58:46.987Z,985.11
2018-01-16T02:59:46.981Z,985.11
2018-01-16T03:00:46.992Z,985.11
2018-01-16T03:01:46.996Z,985.09
2018-01-16T03:02:46.994Z,985.07
2018-01-16T03:03:46.997Z,985.05
2018-01-16T03:04:47.006Z,984.99
2018-01-16T03:05:47.005Z,985.03
2018-01-16T03:06:47.004Z,985.01
2018-01-16T03:07:47.009Z,984.96
2018-01-16T03:08:47.013Z,985.00
2018-01-16T03:09:47.016Z,984.98
2018-01-16T03:10:47.015Z,985.05
2018-01-16T03:11:47.021Z,985.05
2018-01-16T03:12:47.020Z,985.04
2018-01-16T03:13:47.023Z,985.06
2018-01-16T03:14:47.029Z,985.08
2018-01-16T03:15:47.033Z,985.11
2018-01-16T03:16:47.030Z,985.02
2018-01-16T03:17:47.032Z,985.01
2018-01-16T03:18:47.038Z,984.99
2018-01-16T03:19:47.042Z,984.98
2018-01-16T03:20:47.055Z,984.95
2018-01-16T03:21:47.047Z,984.95
2018-01-16T03:22:47.045Z,984.90
2018-01-16T03:23:47.062Z,984.88
2018-01-16T03:24:47.054Z,984.86
2018-01-16T03:25:47.053Z,984.89
2018-01-16T03:26:47.054Z,984.81
2018-01-16T03:27:47.057Z,984.81
2018-01-16T03:28:47.065Z,984.74
2018-01-16T03:29:47.066Z,984.73
2018-01-16T03:30:47.084Z,984.67
2018-01-16T03:31:47.067Z,984.60
2018-01-16T03:32:47.071Z,984.60
2018-01-16T03:33:47.074Z,984.67
2018-01-16T03:34:47.079Z,984.67
2018-01-16T03:35:47.076Z,984.73
2018-01-16T03:36:47.080Z,984.73
2018-01-16T03:37:47.081Z,984.78
2018-01-16T03:38:47.092Z,984.82
2018-01-16T03:39:47.088Z,984.83
2018-01-16T03:40:47.093Z,984.83
2018-01-16T03:41:47.090Z,984.81
2018-01-16T03:42:47.094Z,984.78
2018-01-16T03:43:47.097Z,984.75
2018-01-16T03:44:47.097Z,984.68
2018-01-16T03:45:47.100Z,984.59
2018-01-16T03:46:47.106Z,984.66
2018-01-16T03:47:47.108Z,984.68
2018-01-16T03:48:47.117Z,984.68
2018-01-16T03:49:47.114Z,984.69
2018-01-16T03:50:47.111Z,984.68
2018-01-16T03:51:47.117Z,984.62
2018-01-16T03:52:47.117Z,984.59
2018-01-16T03:53:47.119Z,984.58
2018-01-16T03:54:47.127Z,984.59
2018-01-16T03:55:47.128Z,984.50
2018-01-16T03:56:47.166Z,984.45
2018-01-16T03:57:47.137Z,984.45
2018-01-16T03:58:47.140Z,984.40
2018-01-16T03:59:47.142Z,984.42
2018-01-16T04:00:47.147Z,984.40
2018-01-16T04:01:47.141Z,984.27
2018-01-16T04:02:47.145Z,984.25
2018-01-16T04:03:47.149Z,984.16
2018-01-16T04:04:47.148Z,984.14
2018-01-16T04:05:47.151Z,984.20
2018-01-16T04:06:47.151Z,984.20
2018-01-16T04:07:47.160Z,984.18
2018-01-16T04:08:47.157Z,984.20
2018-01-16T04:09:47.160Z,984.15
2018-01-16T04:10:47.166Z,984.23
2018-01-16T04:11:47.174Z,984.23
2018-01-16T04:12:47.176Z,984.27
2018-01-16T04:13:47.176Z,984.23
2018-01-16T04:14:47.201Z,984.24
2018-01-16T04:15:47.169Z,984.24
2018-01-16T04:16:47.176Z,984.18
2018-01-16T04:17:47.176Z,984.15
2018-01-16T04:18:47.183Z,984.13
2018-01-16T04:19:47.189Z,984.08
2018-01-16T04:20:47.189Z,984.15
2018-01-16T04:21:47.191Z,984.10
2018-01-16T04:22:47.185Z,984.12
2018-01-16T04:23:47.205Z,984.09
2018-01-16T04:24:47.201Z,984.06
2018-01-16T04:25:47.206Z,984.03
2018-01-16T04:26:47.210Z,984.05
2018-01-16T04:27:47.205Z,984.05
2018-01-16T04:28:47.203Z,984.06
2018-01-16T04:29:47.212Z,984.10
2018-01-16T04:30:47.208Z,984.00
2018-01-16T04:31:47.213Z,984.02
2018-01-16T04:32:47.220Z,984.00
2018-01-16T04:33:47.221Z,983.95
2018-01-16T04:34:47.219Z,983.90
2018-01-16T04:35:47.224Z,984.04
2018-01-16T04:36:47.225Z,984.13
2018-01-16T04:37:47.229Z,984.05
2018-01-16T04:38:47.244Z,983.94
2018-01-16T04:39:47.228Z,984.01
2018-01-16T04:40:47.254Z,983.96
2018-01-16T04:41:47.233Z,983.97
2018-01-16T04:42:47.242Z,983.97
2018-01-16T04:43:47.240Z,983.94
2018-01-16T04:44:47.246Z,983.99
2018-01-16T04:45:47.244Z,984.04
2018-01-16T04:46:47.251Z,983.93
2018-01-16T04:47:47.254Z,984.01
2018-01-16T04:48:47.255Z,983.93
2018-01-16T04:49:47.265Z,983.99
2018-01-16T04:50:47.262Z,983.90
2018-01-16T04:51:47.265Z,983.85
2018-01-16T04:52:48.018Z,983.85
2018-01-16T04:53:47.265Z,983.70
2018-01-16T04:54:47.276Z,983.77
2018-01-16T04:55:47.271Z,983.83
2018-01-16T04:56:47.272Z,983.78
2018-01-16T04:57:47.273Z,983.75
2018-01-16T04:58:47.278Z,983.84
2018-01-16T04:59:47.284Z,983.87
2018-01-16T05:00:47.278Z,983.84
2018-01-16T05:01:47.283Z,983.84
2018-01-16T05:02:47.293Z,983.84
2018-01-16T05:03:47.299Z,983.86
2018-01-16T05:04:47.292Z,983.82
2018-01-16T05:05:47.291Z,983.76
2018-01-16T05:06:47.299Z,983.76
2018-01-16T05:07:47.298Z,983.65
2018-01-16T05:08:47.304Z,983.74
2018-01-16T05:09:47.301Z,983.73
2018-01-16T05:10:47.307Z,983.75
2018-01-16T05:11:47.311Z,983.72
2018-01-16T05:12:47.311Z,983.77
2018-01-16T05:13:47.314Z,983.69
2018-01-16T05:14:47.320Z,983.77
2018-01-16T05:15:47.323Z,983.74
2018-01-16T05:16:47.317Z,983.77
2018-01-16T05:17:47.322Z,983.68
2018-01-16T05:18:47.706Z,983.69
2018-01-16T05:19:47.569Z,983.67
2018-01-16T05:20:47.328Z,983.71
2018-01-16T05:21:47.336Z,983.63
2018-01-16T05:22:47.339Z,983.58
2018-01-16T05:23:47.334Z,983.63
2018-01-16T05:24:47.333Z,983.64
2018-01-16T05:25:47.340Z,983.61
2018-01-16T05:26:47.342Z,983.63
2018-01-16T05:27:47.349Z,983.67
2018-01-16T05:28:47.345Z,983.67
2018-01-16T05:29:47.350Z,983.64
2018-01-16T05:30:47.349Z,983.60
2018-01-16T05:31:47.357Z,983.65
2018-01-16T05:32:47.354Z,983.65
2018-01-16T05:33:47.361Z,983.67
2018-01-16T05:34:47.357Z,983.66
2018-01-16T05:35:47.355Z,983.68
2018-01-16T05:36:47.371Z,983.72
2018-01-16T05:37:47.367Z,983.76
2018-01-16T05:38:47.368Z,983.71
2018-01-16T05:39:47.386Z,983.68
2018-01-16T05:40:47.374Z,983.69
2018-01-16T05:41:47.376Z,983.64
2018-01-16T05:42:47.374Z,983.68
2018-01-16T05:43:47.378Z,983.70
2018-01-16T05:44:47.397Z,983.65
2018-01-16T05:45:47.389Z,983.63
2018-01-16T05:46:47.442Z,983.69
2018-01-16T05:47:47.385Z,983.64
2018-01-16T05:48:47.393Z,983.66
2018-01-16T05:49:47.396Z,983.66
2018-01-16T05:50:47.395Z,983.73
2018-01-16T05:51:47.400Z,983.79
2018-01-16T05:52:47.397Z,983.68
2018-01-16T05:53:47.400Z,983.68
2018-01-16T05:54:47.404Z,983.58
2018-01-16T05:55:47.407Z,983.63
2018-01-16T05:56:47.412Z,983.67
2018-01-16T05:57:47.408Z,983.62
2018-01-16T05:58:47.435Z,983.62
2018-01-16T05:59:47.416Z,983.63
2018-01-16T06:00:47.416Z,983.63
2018-01-16T06:01:47.421Z,983.68
2018-01-16T06:02:47.421Z,983.65
2018-01-16T06:03:47.425Z,983.64
2018-01-16T06:04:47.425Z,983.60
2018-01-16T06:05:47.431Z,983.69
2018-01-16T06:06:47.429Z,983.60
2018-01-16T06:07:47.429Z,983.66
2018-01-16T06:08:47.436Z,983.64
2018-01-16T06:09:47.443Z,983.66
2018-01-16T06:10:47.437Z,983.73
2018-01-16T06:11:47.437Z,983.70
2018-01-16T06:12:47.446Z,983.68
2018-01-16T06:13:47.450Z,983.70
2018-01-16T06:14:47.446Z,983.71
2018-01-16T06:15:47.452Z,983.70
2018-01-16T06:16:47.464Z,983.69
2018-01-16T06:17:47.455Z,983.73
2018-01-16T06:18:47.458Z,983.70
2018-01-16T06:19:47.457Z,983.68
2018-01-16T06:20:47.465Z,983.68
2018-01-16T06:21:47.469Z,983.69
2018-01-16T06:22:47.469Z,983.62
2018-01-16T06:23:47.473Z,983.70
2018-01-16T06:24:47.472Z,983.67
2018-01-16T06:25:47.481Z,983.65
2018-01-16T06:26:47.483Z,983.63
2018-01-16T06:27:47.487Z,983.58
2018-01-16T06:28:47.484Z,983.66
2018-01-16T06:29:47.491Z,983.64
2018-01-16T06:30:47.486Z,983.66
2018-01-16T06:31:47.491Z,983.65
2018-01-16T06:32:47.501Z,983.70
2018-01-16T06:33:47.499Z,983.70
2018-01-16T06:34:47.497Z,983.68
2018-01-16T06:35:47.501Z,983.75
2018-01-16T06:36:47.514Z,983.65
2018-01-16T06:37:47.506Z,983.62
2018-01-16T06:38:47.541Z,983.62
2018-01-16T06:39:47.507Z,983.61
2018-01-16T06:40:47.519Z,983.59
2018-01-16T06:41:47.512Z,983.65
2018-01-16T06:42:47.524Z,983.60
2018-01-16T06:43:47.516Z,983.64
2018-01-16T06:44:47.526Z,983.64
2018-01-16T06:45:47.524Z,983.65
2018-01-16T06:46:47.528Z,983.64
2018-01-16T06:47:47.530Z,983.64
2018-01-16T06:48:47.538Z,983.66
2018-01-16T06:49:47.541Z,983.66
2018-01-16T06:50:47.538Z,983.71
2018-01-16T06:51:47.539Z,983.67
2018-01-16T06:52:47.550Z,983.69
2018-01-16T06:53:47.553Z,983.70
2018-01-16T06:54:47.546Z,983.65
2018-01-16T06:55:47.556Z,983.82
2018-01-16T06:56:47.562Z,983.72
2018-01-16T06:57:47.558Z,983.73
2018-01-16T06:58:47.556Z,983.71
2018-01-16T06:59:47.562Z,983.79
2018-01-16T07:00:47.566Z,983.74
2018-01-16T07:01:47.627Z,983.76
2018-01-16T07:02:47.572Z,983.76
2018-01-16T07:03:47.576Z,983.65
2018-01-16T07:04:47.574Z,983.70
2018-01-16T07:05:47.580Z,983.76
2018-01-16T07:06:47.582Z,983.71
2018-01-16T07:07:47.587Z,983.70
2018-01-16T07:08:47.593Z,983.69
2018-01-16T07:09:47.585Z,983.72
2018-01-16T07:10:47.588Z,983.72
2018-01-16T07:11:47.593Z,983.74
2018-01-16T07:12:47.592Z,983.67
2018-01-16T07:13:47.600Z,983.68
2018-01-16T07:14:47.599Z,983.77
2018-01-16T07:15:47.605Z,983.72
2018-01-16T07:16:47.622Z,983.79
2018-01-16T07:17:47.607Z,983.74
2018-01-16T07:18:47.622Z,983.78
2018-01-16T07:19:47.610Z,983.75
2018-01-16T07:20:47.624Z,983.72
2018-01-16T07:21:47.618Z,983.74
2018-01-16T07:22:47.624Z,983.70
2018-01-16T07:23:47.620Z,983.70
2018-01-16T07:24:47.631Z,983.65
2018-01-16T07:25:47.628Z,983.70
2018-01-16T07:26:47.631Z,983.74
2018-01-16T07:27:47.631Z,983.76
2018-01-16T07:28:47.649Z,983.69
2018-01-16T07:29:47.645Z,983.76
2018-01-16T07:30:47.665Z,983.79
2018-01-16T07:31:47.643Z,983.79
2018-01-16T07:32:47.649Z,983.77
2018-01-16T07:33:47.659Z,983.79
2018-01-16T07:34:47.652Z,983.77
2018-01-16T07:35:47.645Z,983.74
2018-01-16T07:36:47.669Z,983.75
2018-01-16T07:37:47.661Z,983.73
2018-01-16T07:38:47.658Z,983.72
2018-01-16T07:39:47.758Z,983.74
2018-01-16T07:40:47.668Z,983.79
2018-01-16T07:41:47.668Z,983.82
2018-01-16T07:42:47.667Z,983.77
2018-01-16T07:43:47.671Z,983.82
2018-01-16T07:44:47.682Z,983.77
2018-01-16T07:45:47.682Z,983.80
2018-01-16T07:46:47.680Z,983.74
2018-01-16T07:47:47.683Z,983.76
2018-01-16T07:48:47.691Z,983.80
2018-01-16T07:49:47.734Z,983.85
2018-01-16T07:50:47.692Z,983.86
2018-01-16T07:51:47.696Z,983.88
2018-01-16T07:52:47.695Z,983.90
2018-01-16T07:53:47.698Z,983.86
2018-01-16T07:54:47.706Z,983.91
2018-01-16T07:55:47.708Z,983.88
2018-01-16T07:56:47.708Z,983.85
2018-01-16T07:57:47.710Z,983.79
2018-01-16T07:58:47.716Z,983.81
2018-01-16T07:59:47.716Z,983.78
2018-01-16T08:00:47.725Z,983.82
2018-01-16T08:01:47.725Z,983.83
2018-01-16T08:02:47.717Z,983.81
2018-01-16T08:03:47.726Z,983.76
2018-01-16T08:04:47.734Z,983.80
2018-01-16T08:05:47.733Z,983.79
2018-01-16T08:06:47.743Z,983.79
2018-01-16T08:07:47.740Z,983.78
2018-01-16T08:08:47.740Z,983.78
2018-01-16T08:09:47.744Z,983.76
2018-01-16T08:10:47.752Z,983.75
2018-01-16T08:11:47.750Z,983.68
2018-01-16T08:12:47.749Z,983.61
2018-01-16T08:13:47.776Z,983.64
2018-01-16T08:14:47.755Z,983.69
2018-01-16T08:15:47.762Z,983.77
2018-01-16T08:16:47.766Z,983.79
2018-01-16T08:17:47.768Z,983.74
2018-01-16T08:18:47.780Z,983.62
2018-01-16T08:19:47.776Z,983.71
2018-01-16T08:20:47.774Z,983.69
2018-01-16T08:21:47.773Z,983.66
2018-01-16T08:22:47.780Z,983.76
2018-01-16T08:23:47.807Z,983.79
2018-01-16T08:24:47.792Z,983.93
2018-01-16T08:25:47.800Z,983.87
2018-01-16T08:26:47.794Z,983.91
2018-01-16T08:27:47.791Z,984.01
2018-01-16T08:28:47.800Z,983.96
2018-01-16T08:29:47.801Z,983.98
2018-01-16T08:30:47.806Z,984.14
2018-01-16T08:31:47.802Z,984.14
2018-01-16T08:32:47.837Z,984.21
2018-01-16T08:33:47.813Z,984.11
2018-01-16T08:34:47.816Z,984.20
2018-01-16T08:35:47.818Z,984.18
2018-01-16T08:36:47.822Z,984.18
2018-01-16T08:37:47.821Z,984.20
2018-01-16T08:38:47.845Z,984.26
2018-01-16T08:39:47.830Z,984.29
2018-01-16T08:40:47.837Z,984.25
2018-01-16T08:41:47.831Z,984.25
2018-01-16T08:42:47.835Z,984.25
2018-01-16T08:43:47.841Z,984.26
2018-01-16T08:44:47.838Z,984.30
2018-01-16T08:45:47.839Z,984.22
2018-01-16T08:46:47.845Z,984.24
2018-01-16T08:47:47.848Z,984.15
2018-01-16T08:48:47.847Z,984.13
2018-01-16T08:49:47.846Z,984.04
2018-01-16T08:50:47.847Z,984.07
2018-01-16T08:51:48.023Z,984.01
2018-01-16T08:52:47.853Z,984.01
2018-01-16T08:53:47.856Z,984.03
2018-01-16T08:54:47.855Z,983.90
2018-01-16T08:55:47.861Z,983.92
2018-01-16T08:56:47.858Z,983.91
2018-01-16T08:57:47.859Z,983.80
2018-01-16T08:58:47.866Z,983.84
2018-01-16T08:59:47.867Z,983.85
2018-01-16T09:00:47.870Z,983.83
2018-01-16T09:01:47.867Z,983.87
2018-01-16T09:02:47.873Z,983.87
2018-01-16T09:03:47.874Z,983.88
2018-01-16T09:04:47.875Z,983.83
2018-01-16T09:05:47.872Z,983.86
2018-01-16T09:06:47.903Z,983.87
2018-01-16T09:07:47.894Z,983.82
2018-01-16T09:08:47.879Z,983.85
2018-01-16T09:09:47.880Z,983.87
2018-01-16T09:10:47.885Z,983.83
2018-01-16T09:11:47.889Z,983.89
2018-01-16T09:12:47.885Z,983.85
2018-01-16T09:13:47.894Z,983.86
2018-01-16T09:14:47.886Z,983.88
2018-01-16T09:15:47.895Z,983.88
2018-01-16T09:16:47.906Z,983.87
2018-01-16T09:17:47.905Z,983.93
2018-01-16T09:18:47.902Z,983.93
2018-01-16T09:19:47.902Z,983.90
2018-01-16T09:20:47.904Z,983.87
2018-01-16T09:21:47.942Z,983.92
2018-01-16T09:22:47.920Z,983.92
2018-01-16T09:23:47.910Z,983.93
2018-01-16T09:24:47.908Z,983.93
2018-01-16T09:25:47.911Z,983.98
2018-01-16T09:26:47.908Z,983.99
2018-01-16T09:27:47.909Z,984.09
2018-01-16T09:28:47.917Z,984.11
2018-01-16T09:29:47.915Z,984.10
2018-01-16T09:30:47.918Z,984.10
2018-01-16T09:31:47.921Z,984.09
2018-01-16T09:32:47.922Z,984.16
2018-01-16T09:33:47.919Z,984.04
2018-01-16T09:34:47.926Z,984.11
2018-01-16T09:35:47.928Z,984.10
2018-01-16T09:36:47.924Z,984.19
2018-01-16T09:37:47.923Z,984.18
2018-01-16T09:38:47.931Z,984.10
2018-01-16T09:39:47.930Z,984.09
2018-01-16T09:40:47.932Z,984.10
2018-01-16T09:41:47.936Z,984.09
2018-01-16T09:42:47.928Z,984.05
2018-01-16T09:43:47.945Z,984.11
2018-01-16T09:44:47.940Z,984.06
2018-01-16T09:45:47.938Z,984.10
2018-01-16T09:46:48.561Z,984.07
2018-01-16T09:47:47.944Z,984.16
2018-01-16T09:48:47.943Z,984.12
2018-01-16T09:49:47.957Z,984.16
2018-01-16T09:50:47.949Z,984.22
2018-01-16T09:51:47.949Z,984.26
2018-01-16T09:52:47.953Z,984.31
2018-01-16T09:53:47.949Z,984.32
2018-01-16T09:54:47.952Z,984.42
2018-01-16T09:55:47.957Z,984.49
2018-01-16T09:56:47.953Z,984.52
2018-01-16T09:57:47.952Z,984.56
2018-01-16T09:58:47.966Z,984.57
2018-01-16T09:59:47.958Z,984.61
2018-01-16T10:00:47.962Z,984.63
2018-01-16T10:01:47.959Z,984.71
2018-01-16T10:02:47.963Z,984.74
2018-01-16T10:03:47.963Z,984.73
2018-01-16T10:04:47.973Z,984.70
2018-01-16T10:05:47.964Z,984.67
2018-01-16T10:06:47.969Z,984.64
2018-01-16T10:07:47.998Z,984.38
2018-01-16T10:08:47.973Z,984.03
2018-01-16T10:09:47.964Z,984.08
2018-01-16T10:10:47.970Z,984.15
2018-01-16T10:11:47.970Z,984.17
2018-01-16T10:12:47.975Z,984.23
2018-01-16T10:13:47.975Z,984.24
2018-01-16T10:14:47.978Z,984.24
2018-01-16T10:15:47.973Z,984.23
2018-01-16T10:16:47.981Z,984.24
2018-01-16T10:17:47.980Z,984.29
2018-01-16T10:18:47.978Z,984.28
2018-01-16T10:19:47.979Z,984.32
2018-01-16T10:20:47.993Z,984.29
2018-01-16T10:21:47.992Z,984.28
2018-01-16T10:22:47.986Z,984.32
2018-01-16T10:23:47.985Z,984.30
2018-01-16T10:24:47.995Z,984.32
2018-01-16T10:25:47.993Z,984.35
2018-01-16T10:26:47.989Z,984.36
2018-01-16T10:27:47.992Z,984.44
2018-01-16T10:28:47.999Z,984.36
2018-01-16T10:29:47.996Z,984.39
2018-01-16T10:30:47.998Z,984.42
2018-01-16T10:31:47.991Z,984.43
2018-01-16T10:32:48.005Z,984.51
2018-01-16T10:33:48.006Z,984.82
2018-01-16T10:34:47.999Z,984.62
2018-01-16T10:35:48.003Z,984.63
2018-01-16T10:36:48.005Z,984.51
2018-01-16T10:37:48.008Z,984.57
2018-01-16T10:38:48.006Z,984.63
2018-01-16T10:39:48.011Z,984.70
2018-01-16T10:40:48.020Z,984.71
2018-01-16T10:41:48.021Z,984.75
2018-01-16T10:42:48.013Z,984.68
2018-01-16T10:43:48.019Z,984.68
2018-01-16T10:44:48.027Z,984.67
2018-01-16T10:45:48.033Z,984.69
2018-01-16T10:46:48.025Z,984.69
2018-01-16T10:47:48.030Z,984.70
2018-01-16T10:48:48.022Z,984.75
2018-01-16T10:49:48.036Z,984.78
2018-01-16T10:50:48.038Z,984.83
2018-01-16T10:51:48.038Z,984.81
2018-01-16T10:52:48.037Z,984.86
2018-01-16T10:53:48.042Z,984.85
2018-01-16T10:54:48.040Z,984.87
2018-01-16T10:55:48.051Z,984.93
2018-01-16T10:56:48.062Z,984.91
2018-01-16T10:57:48.058Z,984.87
2018-01-16T10:58:48.044Z,984.94
2018-01-16T10:59:48.055Z,984.94
2018-01-16T11:00:48.051Z,984.97
2018-01-16T11:01:48.063Z,984.98
2018-01-16T11:02:48.057Z,984.97
2018-01-16T11:03:48.065Z,985.00
2018-01-16T11:04:48.070Z,984.99
2018-01-16T11:05:48.085Z,985.06
2018-01-16T11:06:48.065Z,985.11
2018-01-16T11:07:48.072Z,985.07
2018-01-16T11:08:48.074Z,985.08
2018-01-16T11:09:48.074Z,985.08
2018-01-16T11:10:48.077Z,985.16
2018-01-16T11:11:48.078Z,985.12
2018-01-16T11:12:48.083Z,985.24
2018-01-16T11:13:48.079Z,985.13
2018-01-16T11:14:48.095Z,985.16
2018-01-16T11:15:48.085Z,985.24
2018-01-16T11:16:48.092Z,985.15
2018-01-16T11:17:48.090Z,985.22
2018-01-16T11:18:48.096Z,985.31
2018-01-16T11:19:48.094Z,985.24
2018-01-16T11:20:48.100Z,985.22
2018-01-16T11:21:48.103Z,985.19
2018-01-16T11:22:48.104Z,985.36
2018-01-16T11:23:48.100Z,985.27
2018-01-16T11:24:48.111Z,985.28
2018-01-16T11:25:48.110Z,985.21
2018-01-16T11:26:48.112Z,985.21
2018-01-16T11:27:48.111Z,985.26
2018-01-16T11:28:48.155Z,985.31
2018-01-16T11:29:48.122Z,985.24
2018-01-16T11:30:48.138Z,985.14
2018-01-16T11:31:48.122Z,985.20
2018-01-16T11:32:48.128Z,985.19
2018-01-16T11:33:48.131Z,985.26
2018-01-16T11:34:48.127Z,985.22
2018-01-16T11:35:48.134Z,985.19
2018-01-16T11:36:48.133Z,985.23
2018-01-16T11:37:48.138Z,985.31
2018-01-16T11:38:48.140Z,985.28
2018-01-16T11:39:48.160Z,985.28
2018-01-16T11:40:48.142Z,985.32
2018-01-16T11:41:48.143Z,985.33
2018-01-16T11:42:48.148Z,985.31
2018-01-16T11:43:48.149Z,985.35
2018-01-16T11:44:48.154Z,985.33
2018-01-16T11:45:48.154Z,985.42
2018-01-16T11:46:48.154Z,985.48
2018-01-16T11:47:48.153Z,985.46
2018-01-16T11:48:48.165Z,985.45
2018-01-16T11:49:48.165Z,985.49
2018-01-16T11:50:48.164Z,985.47
2018-01-16T11:51:48.167Z,985.53
2018-01-16T11:52:48.175Z,985.53
2018-01-16T11:53:48.189Z,985.51
2018-01-16T11:54:48.191Z,985.44
2018-01-16T11:55:48.175Z,985.53
2018-01-16T11:56:48.198Z,985.46
2018-01-16T11:57:48.197Z,985.44
2018-01-16T11:58:48.187Z,985.46
2018-01-16T11:59:48.194Z,985.38
2018-01-16T12:00:48.193Z,985.43
2018-01-16T12:01:48.201Z,985.41
2018-01-16T12:02:48.199Z,985.45
2018-01-16T12:03:48.204Z,985.39
2018-01-16T12:04:48.203Z,985.40
2018-01-16T12:05:48.212Z,985.43
2018-01-16T12:06:48.206Z,985.45
2018-01-16T12:07:48.211Z,985.49
2018-01-16T12:08:48.216Z,985.47
2018-01-16T12:09:48.219Z,985.50
2018-01-16T12:10:48.224Z,985.48
2018-01-16T12:11:48.226Z,985.52
2018-01-16T12:12:48.232Z,985.45
2018-01-16T12:13:48.234Z,985.47
2018-01-16T12:14:48.231Z,985.43
2018-01-16T12:15:48.234Z,985.36
2018-01-16T12:16:48.242Z,985.43
2018-01-16T12:17:48.245Z,985.40
2018-01-16T12:18:48.249Z,985.43
2018-01-16T12:19:48.247Z,985.41
2018-01-16T12:20:48.255Z,985.43
2018-01-16T12:21:48.256Z,985.39
2018-01-16T12:22:48.259Z,985.41
2018-01-16T12:23:48.268Z,985.46
2018-01-16T12:24:48.267Z,985.48
2018-01-16T12:25:48.294Z,985.40
2018-01-16T12:26:48.272Z,985.47
2018-01-16T12:27:48.273Z,985.51
2018-01-16T12:28:48.277Z,985.49